Time;durP1;ratioP1;P1;durP2;ratioP2;P2;SDS_P1;SDS_P2;PMS_P1;PMS_P2;Temp;Humidity;BMP_temperature;BMP_pressure;BME280_temperature;BME280_humidity;BME280_pressure;Samples;Min_cycle;Max_cycle;Signal;HPM_P1;HPM_P2
2022/07/03 00:00:33;;;;;;;3.17;1.65;;;;;;;15.63;76.03;101887.38;5052294;28;20029;-76
2022/07/03 00:02:58;;;;;;;3.08;1.50;;;;;;;15.67;76.76;101891.47;5052168;28;20076;-76
2022/07/03 00:05:25;;;;;;;5.90;2.03;;;;;;;15.67;76.52;101886.09;5053037;28;20369;-77
2022/07/03 00:07:50;;;;;;;1.50;1.40;;;;;;;15.66;75.81;101885.25;5053104;28;20029;-76
2022/07/03 00:10:15;;;;;;;3.38;1.77;;;;;;;15.68;76.07;101895.84;5052731;28;20036;-77
2022/07/03 00:12:41;;;;;;;1.92;1.33;;;;;;;15.72;76.04;101893.69;5052399;28;20032;-76
2022/07/03 00:15:07;;;;;;;3.15;1.52;;;;;;;15.75;75.78;101890.72;5052347;28;20400;-76
2022/07/03 00:17:32;;;;;;;3.42;1.50;;;;;;;15.77;75.45;101883.38;5052136;28;20326;-76
2022/07/03 00:19:58;;;;;;;5.45;1.50;;;;;;;15.78;75.57;101883.25;5050945;28;20055;-76
2022/07/03 00:22:25;;;;;;;2.58;1.60;;;;;;;15.80;75.15;101883.94;5052333;28;20033;-76
2022/07/03 00:24:54;;;;;;;5.03;1.40;;;;;;;15.81;75.54;101885.66;5052137;28;20047;-77
2022/07/03 00:27:23;;;;;;;4.13;1.50;;;;;;;15.83;75.42;101889.03;5052102;28;20039;-77
2022/07/03 00:29:50;;;;;;;3.05;1.60;;;;;;;15.85;75.36;101891.56;5050618;28;20036;-77
2022/07/03 00:32:21;;;;;;;2.65;1.30;;;;;;;15.89;75.00;101890.28;5051983;28;20465;-77
2022/07/03 00:34:49;;;;;;;1.67;1.38;;;;;;;15.92;74.90;101892.66;5052021;28;20135;-76
2022/07/03 00:37:14;;;;;;;2.03;1.30;;;;;;;15.94;75.10;101898.72;5052298;28;20029;-76
2022/07/03 00:39:41;;;;;;;4.63;1.80;;;;;;;15.96;74.51;101895.88;5050431;28;20469;-76
2022/07/03 00:42:08;;;;;;;2.20;1.30;;;;;;;16.00;73.53;101882.03;5050349;28;20072;-76
2022/07/03 00:44:43;;;;;;;3.08;1.33;;;;;;;16.02;73.81;101880.03;5051905;28;20033;-77
2022/07/03 00:47:10;;;;;;;3.17;1.50;;;;;;;16.06;73.79;101891.31;5052011;28;20124;-77
2022/07/03 00:49:38;;;;;;;4.97;1.80;;;;;;;16.05;74.00;101886.94;5051664;28;20051;-77
2022/07/03 00:52:05;;;;;;;3.25;1.30;;;;;;;16.03;73.86;101887.09;5051622;28;20029;-77
2022/07/03 00:54:34;;;;;;;2.22;1.30;;;;;;;16.03;73.66;101891.59;5051579;28;20039;-78
2022/07/03 00:57:01;;;;;;;8.20;1.40;;;;;;;16.02;74.11;101887.25;5051695;28;20025;-77
2022/07/03 00:59:26;;;;;;;2.60;1.30;;;;;;;15.98;75.61;101881.31;5051658;28;20045;-77
2022/07/03 01:02:08;;;;;;;6.72;1.50;;;;;;;15.93;75.52;101882.75;5051853;28;20029;-78
2022/07/03 01:04:56;;;;;;;3.42;1.50;;;;;;;15.89;75.64;101879.53;5052428;28;20043;-76
2022/07/03 01:07:51;;;;;;;4.05;1.45;;;;;;;15.90;75.32;101877.69;5051956;28;20028;-77
2022/07/03 01:10:31;;;;;;;5.13;1.40;;;;;;;15.89;75.97;101876.84;5037528;28;20033;-78
2022/07/03 01:13:12;;;;;;;4.15;1.13;;;;;;;15.89;75.61;101878.69;5055527;28;20200;-77
2022/07/03 01:15:59;;;;;;;3.38;1.30;;;;;;;15.86;76.48;101879.84;5055917;28;20466;-78
2022/07/03 01:18:53;;;;;;;2.28;1.15;;;;;;;15.84;76.21;101888.03;5055045;28;20025;-77
2022/07/03 01:21:27;;;;;;;1.30;1.05;;;;;;;15.83;76.43;101880.13;5055567;28;20024;-77
2022/07/03 01:24:13;;;;;;;3.35;1.30;;;;;;;15.81;76.81;101871.41;5055912;28;20040;-78
2022/07/03 01:26:41;;;;;;;5.00;1.30;;;;;;;15.81;77.12;101869.56;5054223;28;20040;-77
2022/07/03 01:29:13;;;;;;;3.60;1.48;;;;;;;15.81;77.24;101872.22;5055437;28;20037;-77
2022/07/03 01:31:40;;;;;;;2.35;1.20;;;;;;;15.84;76.97;101877.31;5055415;28;20394;-77
2022/07/03 01:34:15;;;;;;;4.53;1.00;;;;;;;15.90;76.34;101883.06;5054205;28;20381;-77
2022/07/03 01:36:43;;;;;;;3.03;1.10;;;;;;;15.92;76.05;101876.56;5055292;28;20087;-77
2022/07/03 01:39:10;;;;;;;1.25;1.00;;;;;;;15.97;75.87;101870.72;5055306;28;20033;-77
2022/07/03 01:41:37;;;;;;;3.97;1.30;;;;;;;15.99;75.80;101858.03;5055746;28;20049;-78
2022/07/03 01:44:03;;;;;;;2.38;1.08;;;;;;;16.03;75.35;101867.44;5053834;28;20095;-78
2022/07/03 01:46:31;;;;;;;3.60;1.25;;;;;;;16.06;75.25;101869.00;5055379;28;20410;-78
2022/07/03 01:48:58;;;;;;;6.30;1.10;;;;;;;16.07;74.80;101868.84;5055152;28;20125;-77
2022/07/03 01:51:25;;;;;;;3.22;1.08;;;;;;;16.10;74.56;101863.16;5054810;28;20075;-76
2022/07/03 01:53:52;;;;;;;5.38;1.30;;;;;;;16.11;74.61;101867.56;5053491;28;20036;-76
2022/07/03 01:56:20;;;;;;;3.90;1.08;;;;;;;16.12;75.59;101877.31;5053847;28;20032;-76
2022/07/03 01:58:45;;;;;;;2.75;1.20;;;;;;;16.13;74.95;101868.25;5054906;28;20039;-75
2022/07/03 02:01:49;;;;;;;2.97;1.02;;;;;;;16.15;75.06;101873.47;5054692;28;20053;-77
2022/07/03 02:04:21;;;;;;;3.83;1.00;;;;;;;16.14;75.39;101863.75;5031603;28;20057;-77
2022/07/03 02:07:39;;;;;;;3.60;0.98;;;;;;;16.11;76.14;101861.31;5054184;28;20381;-76
2022/07/03 02:10:07;;;;;;;5.68;1.13;;;;;;;16.06;76.14;101845.66;5041249;28;20037;-76
2022/07/03 02:12:48;;;;;;;2.70;0.88;;;;;;;15.98;77.34;101850.97;5054903;28;20157;-77
2022/07/03 02:15:18;;;;;;;3.53;1.20;;;;;;;15.95;78.25;101849.41;5054851;28;20029;-77
2022/07/03 02:17:46;;;;;;;4.40;1.33;;;;;;;15.90;78.84;101846.34;5054537;28;20111;-77
2022/07/03 02:20:14;;;;;;;5.30;1.30;;;;;;;15.88;78.98;101851.00;5053457;28;20029;-77
2022/07/03 02:22:44;;;;;;;2.63;1.00;;;;;;;15.87;79.76;101846.66;5053295;28;20029;-82
2022/07/03 02:25:19;;;;;;;5.07;1.25;;;;;;;15.86;80.15;101839.59;5054396;28;20116;-77
2022/07/03 02:27:55;;;;;;;5.47;1.55;;;;;;;15.86;80.66;101836.91;5054470;28;20056;-78
2022/07/03 02:30:23;;;;;;;7.60;1.50;;;;;;;15.88;80.61;101834.06;5055204;28;20029;-78
2022/07/03 02:32:51;;;;;;;3.90;1.20;;;;;;;15.87;80.90;101835.91;5053191;28;20110;-78
2022/07/03 02:35:26;;;;;;;3.28;1.17;;;;;;;15.84;81.42;101836.22;5054262;28;20492;-77
2022/07/03 02:38:05;;;;;;;4.05;1.27;;;;;;;15.79;82.69;101846.53;5054296;28;20468;-77
2022/07/03 02:40:49;;;;;;;3.90;1.10;;;;;;;15.73;82.26;101836.38;5052635;28;20044;-77
2022/07/03 02:43:23;;;;;;;6.13;1.52;;;;;;;15.67;82.35;101840.50;5054472;28;20044;-77
2022/07/03 02:45:57;;;;;;;4.53;1.75;;;;;;;15.61;82.94;101841.09;5054761;28;20033;-77
2022/07/03 02:48:40;;;;;;;6.88;1.40;;;;;;;15.55;83.32;101844.34;5054469;28;20031;-77
2022/07/03 02:51:13;;;;;;;3.97;1.20;;;;;;;15.50;84.10;101845.63;5053124;28;20036;-82
2022/07/03 02:53:44;;;;;;;5.32;1.17;;;;;;;15.49;84.16;101843.09;5052250;28;20083;-83
2022/07/03 02:56:23;;;;;;;;;;;;;;;15.50;84.74;101847.47;5052870;28;20437;-82
2022/07/03 02:59:04;;;;;;;5.05;1.30;;;;;;;15.50;84.71;101850.16;5052216;28;19995;-83
2022/07/03 03:01:33;;;;;;;5.05;1.90;;;;;;;15.49;85.46;101848.47;5050859;28;20025;-83
2022/07/03 03:04:11;;;;;;;6.00;1.35;;;;;;;15.43;85.82;101855.25;5050436;28;20123;-83
2022/07/03 03:06:37;;;;;;;3.55;1.45;;;;;;;15.36;86.10;101839.91;5052629;28;20036;-82
2022/07/03 03:09:07;;;;;;;7.47;1.38;;;;;;;15.28;86.09;101844.16;5053161;28;20029;-82
2022/07/03 03:11:44;;;;;;;8.23;1.35;;;;;;;15.22;86.91;101858.13;5053472;28;20025;-82
2022/07/03 03:14:17;;;;;;;4.00;1.15;;;;;;;15.13;86.73;101849.13;5052979;28;20120;-81
2022/07/03 03:16:53;;;;;;;7.13;1.40;;;;;;;15.05;87.70;101848.16;5053776;28;20032;-82
2022/07/03 03:19:24;;;;;;;8.20;2.17;;;;;;;14.99;87.69;101844.25;5052439;28;20053;-82
2022/07/03 03:21:58;;;;;;;6.55;1.70;;;;;;;14.93;88.54;101853.69;5053210;28;20047;-83
2022/07/03 03:24:24;;;;;;;5.78;1.27;;;;;;;14.90;89.11;101850.44;5051630;28;20161;-82
2022/07/03 03:26:50;;;;;;;3.40;1.35;;;;;;;14.87;89.05;101856.06;5052159;28;20472;-83
2022/07/03 03:29:15;;;;;;;3.88;1.35;;;;;;;14.83;89.93;101852.84;5050088;28;20029;-83
2022/07/03 03:31:41;;;;;;;3.10;1.30;;;;;;;14.83;89.77;101849.34;5051234;28;20033;-82
2022/07/03 03:34:07;;;;;;;6.45;1.40;;;;;;;14.82;89.94;101843.13;5051354;28;20041;-82
2022/07/03 03:36:32;;;;;;;4.93;1.27;;;;;;;14.81;90.28;101853.00;5051714;28;20048;-83
2022/07/03 03:38:58;;;;;;;4.68;1.40;;;;;;;14.79;90.46;101849.63;5052073;28;20044;-83
2022/07/03 03:41:24;;;;;;;6.20;1.50;;;;;;;14.78;91.00;101857.81;5049923;28;20040;-83
2022/07/03 03:43:49;;;;;;;6.47;1.30;;;;;;;14.76;91.30;101859.75;5051320;28;20139;-83
2022/07/03 03:46:14;;;;;;;9.75;1.60;;;;;;;14.74;91.54;101856.38;5051547;28;20032;-82
2022/07/03 03:48:40;;;;;;;7.72;1.50;;;;;;;14.76;91.97;101857.09;5049942;28;20094;-82
2022/07/03 03:51:07;;;;;;;5.43;1.25;;;;;;;14.79;91.92;101857.66;5051571;28;20041;-83
2022/07/03 03:53:32;;;;;;;7.43;1.70;;;;;;;14.85;91.81;101860.75;5049178;28;20051;-83
2022/07/03 03:56:05;;;;;;;5.95;1.27;;;;;;;14.91;91.47;101863.72;5049247;28;20039;-83
2022/07/03 03:58:32;;;;;;;2.88;1.40;;;;;;;14.94;91.13;101858.06;5050870;28;20044;-82
2022/07/03 04:01:00;;;;;;;6.72;2.10;;;;;;;14.96;90.85;101856.09;5050539;28;20024;-82
2022/07/03 04:03:27;;;;;;;8.60;1.60;;;;;;;14.97;91.44;101856.91;5050976;28;20059;-83
2022/07/03 04:05:53;;;;;;;8.23;2.00;;;;;;;14.97;91.95;101859.59;5033133;28;20040;-88
2022/07/03 04:08:20;;;;;;;6.30;1.65;;;;;;;14.99;92.12;101860.31;5049305;28;20059;-83
2022/07/03 04:10:46;;;;;;;3.78;1.33;;;;;;;15.01;92.21;101861.00;5050894;28;20437;-82
2022/07/03 04:13:11;;;;;;;3.78;1.35;;;;;;;15.05;92.22;101858.88;5050958;28;20037;-83
2022/07/03 04:15:37;;;;;;;7.68;1.60;;;;;;;15.06;92.44;101861.44;5050429;28;20433;-83
2022/07/03 04:18:02;;;;;;;5.75;1.40;;;;;;;15.07;92.82;101856.91;5050463;28;20029;-83
2022/07/03 04:20:28;;;;;;;8.98;1.48;;;;;;;15.05;92.98;101853.50;5048847;28;20107;-82
2022/07/03 04:22:53;;;;;;;6.32;1.83;;;;;;;15.04;93.47;101862.56;5050354;28;20051;-81
2022/07/03 04:25:19;;;;;;;4.53;1.40;;;;;;;15.02;94.00;101853.81;5050270;28;20043;-82
2022/07/03 04:27:44;;;;;;;5.72;1.50;;;;;;;14.97;94.05;101859.59;5050310;28;20434;-82
2022/07/03 04:30:10;;;;;;;11.27;2.13;;;;;;;14.94;94.70;101863.44;5048921;28;20049;-82
2022/07/03 04:32:36;;;;;;;8.50;2.05;;;;;;;14.89;95.20;101865.69;5050278;28;20033;-82
2022/07/03 04:35:02;;;;;;;6.03;1.63;;;;;;;14.85;95.70;101869.63;5049965;28;20473;-83
2022/07/03 04:37:28;;;;;;;9.65;1.92;;;;;;;14.84;96.25;101856.38;5049914;28;20037;-82
2022/07/03 04:39:53;;;;;;;6.72;1.67;;;;;;;14.84;96.88;101873.31;5049877;28;20036;-83
2022/07/03 04:42:19;;;;;;;14.35;2.08;;;;;;;14.88;97.28;101872.00;5031666;28;20417;-82
2022/07/03 04:44:44;;;;;;;6.57;1.83;;;;;;;14.92;97.16;101875.28;5049834;28;20033;-82
2022/07/03 04:47:10;;;;;;;8.20;2.42;;;;;;;14.97;97.37;101873.84;5048426;28;20033;-82
2022/07/03 04:49:35;;;;;;;5.25;1.67;;;;;;;15.04;97.05;101874.13;5048841;28;20090;-82
2022/07/03 04:52:01;;;;;;;7.68;1.95;;;;;;;15.08;97.24;101869.34;5050117;28;20116;-84
2022/07/03 04:54:26;;;;;;;8.88;1.92;;;;;;;15.10;97.19;101873.53;5048717;28;20438;-82
2022/07/03 04:56:51;;;;;;;6.60;1.42;;;;;;;15.08;97.07;101880.06;5050137;28;20091;-82
2022/07/03 04:59:17;;;;;;;6.53;1.90;;;;;;;15.05;97.34;101874.94;5048348;28;20051;-82
2022/07/03 05:01:42;;;;;;;7.30;1.75;;;;;;;15.04;97.41;101876.78;5048866;28;20033;-84
2022/07/03 05:04:08;;;;;;;7.45;1.80;;;;;;;15.01;97.54;101873.56;5049738;28;20072;-84
2022/07/03 05:06:33;;;;;;;5.53;1.48;;;;;;;14.97;98.26;101879.22;5048715;28;20041;-82
2022/07/03 05:08:58;;;;;;;12.45;2.25;;;;;;;14.95;98.35;101880.34;5049314;28;20068;-83
2022/07/03 05:11:24;;;;;;;12.55;2.25;;;;;;;14.92;98.67;101884.16;5048702;28;20045;-82
2022/07/03 05:13:49;;;;;;;8.18;1.77;;;;;;;14.93;98.85;101874.28;5049882;28;20079;-82
2022/07/03 05:16:14;;;;;;;8.35;1.77;;;;;;;14.94;99.41;101879.50;5049051;28;20115;-83
2022/07/03 05:18:40;;;;;;;8.82;1.73;;;;;;;14.97;99.61;101883.72;5032105;28;20143;-82
2022/07/03 05:21:05;;;;;;;6.38;1.98;;;;;;;14.99;99.84;101879.06;5049503;28;20040;-83
2022/07/03 05:23:30;;;;;;;10.82;1.80;;;;;;;15.06;99.75;101884.69;5049715;28;20025;-82
2022/07/03 05:25:56;;;;;;;6.07;1.67;;;;;;;15.09;100.00;101885.28;5049747;28;20342;-82
2022/07/03 05:28:21;;;;;;;7.88;1.60;;;;;;;15.12;99.71;101882.31;5049884;28;20029;-82
2022/07/03 05:30:46;;;;;;;8.75;1.90;;;;;;;15.12;99.95;101887.66;5049638;28;20366;-82
2022/07/03 05:33:12;;;;;;;8.60;1.80;;;;;;;15.14;99.80;101885.69;5031442;28;20357;-82
2022/07/03 05:35:37;;;;;;;9.57;2.00;;;;;;;15.18;99.92;101886.22;5049532;28;20040;-82
2022/07/03 05:38:03;;;;;;;4.50;1.50;;;;;;;15.25;99.84;101891.88;5031740;28;20417;-82
2022/07/03 05:40:28;;;;;;;4.25;1.63;;;;;;;15.33;99.00;101886.59;5049863;28;20032;-82
2022/07/03 05:42:53;;;;;;;7.50;1.70;;;;;;;15.45;97.81;101887.28;5031438;28;20511;-82
2022/07/03 05:45:19;;;;;;;5.68;1.75;;;;;;;15.55;97.26;101885.44;5048198;28;20094;-82
2022/07/03 05:47:45;;;;;;;6.90;1.80;;;;;;;15.68;96.53;101888.63;5031596;28;20040;-83
2022/07/03 05:50:11;;;;;;;4.85;1.67;;;;;;;15.82;95.66;101891.84;5049490;28;20041;-83
2022/07/03 05:52:36;;;;;;;6.80;1.85;;;;;;;15.96;94.81;101888.69;5049616;28;20033;-83
2022/07/03 05:55:02;;;;;;;8.20;1.90;;;;;;;16.15;94.58;101884.19;5051073;28;20063;-82
2022/07/03 05:57:28;;;;;;;6.68;1.85;;;;;;;16.32;93.84;101894.13;5053249;28;20040;-81
2022/07/03 05:59:53;;;;;;;5.80;2.20;;;;;;;16.52;93.33;101892.13;5051656;28;20037;-82
2022/07/03 06:02:19;;;;;;;8.25;1.77;;;;;;;16.72;92.21;101894.72;5051455;28;20037;-82
2022/07/03 06:04:44;;;;;;;10.57;1.80;;;;;;;16.87;90.70;101895.88;5051748;28;20041;-82
2022/07/03 06:07:10;;;;;;;9.40;2.22;;;;;;;17.03;90.60;101892.47;5052844;28;20065;-83
2022/07/03 06:09:35;;;;;;;5.03;1.77;;;;;;;17.20;87.92;101889.91;5051483;28;20029;-82
2022/07/03 06:12:00;;;;;;;8.20;2.20;;;;;;;17.48;88.50;101887.06;5034909;28;20041;-82
2022/07/03 06:14:26;;;;;;;13.70;3.08;;;;;;;17.76;86.55;101885.00;5034866;28;20036;-83
2022/07/03 06:16:51;;;;;;;7.60;1.80;;;;;;;18.06;83.89;101898.97;5051436;28;20116;-82
2022/07/03 06:19:16;;;;;;;7.97;1.90;;;;;;;18.29;80.59;101894.66;5051283;28;20342;-83
2022/07/03 06:21:44;;;;;;;12.85;1.92;;;;;;;18.49;79.36;101903.28;5051331;28;20101;-83
2022/07/03 06:24:09;;;;;;;6.13;1.63;;;;;;;18.68;79.66;101890.53;5035159;28;20051;-83
2022/07/03 06:26:35;;;;;;;7.38;1.85;;;;;;;18.82;77.07;101891.72;5051532;28;20033;-83
2022/07/03 06:29:00;;;;;;;6.88;1.63;;;;;;;18.79;76.11;101900.97;5051438;28;20162;-83
2022/07/03 06:31:26;;;;;;;7.05;1.80;;;;;;;18.83;77.27;101894.22;5051713;28;20051;-83
2022/07/03 06:33:51;;;;;;;6.93;1.85;;;;;;;18.91;76.21;101895.28;5052824;28;20465;-83
2022/07/03 06:36:17;;;;;;;7.18;1.98;;;;;;;18.80;76.27;101891.03;5052423;28;20037;-82
2022/07/03 06:38:42;;;;;;;6.88;1.98;;;;;;;18.82;77.42;101900.66;5034561;28;20077;-83
2022/07/03 06:41:07;;;;;;;6.60;1.98;;;;;;;18.79;76.41;101900.13;5052480;28;20220;-83
2022/07/03 06:43:33;;;;;;;5.57;1.85;;;;;;;18.67;76.16;101895.09;5051181;28;20123;-84
2022/07/03 06:45:58;;;;;;;10.48;1.70;;;;;;;18.49;76.67;101902.44;5050715;28;20492;-84
2022/07/03 06:48:24;;;;;;;9.52;2.00;;;;;;;18.44;77.46;101908.34;5052077;28;20033;-84
2022/07/03 06:50:49;;;;;;;4.45;1.88;;;;;;;18.50;77.20;101904.16;5051042;28;20436;-84
2022/07/03 06:53:14;;;;;;;8.40;1.80;;;;;;;18.60;77.96;101909.38;5033967;28;20041;-88
2022/07/03 06:55:40;;;;;;;5.57;1.73;;;;;;;18.66;76.71;101911.41;5051114;28;20517;-83
2022/07/03 06:58:05;;;;;;;6.75;1.50;;;;;;;18.64;75.97;101908.88;5050825;28;20041;-82
2022/07/03 07:00:31;;;;;;;4.75;1.48;;;;;;;18.60;75.67;101904.84;5050577;28;20064;-83
2022/07/03 07:02:56;;;;;;;5.57;1.90;;;;;;;18.60;75.88;101904.84;5034889;28;20037;-83
2022/07/03 07:05:22;;;;;;;5.07;1.40;;;;;;;18.57;74.96;101899.78;5050584;28;20041;-82
2022/07/03 07:07:48;;;;;;;3.22;1.27;;;;;;;18.59;75.17;101910.41;5050020;28;20395;-82
2022/07/03 07:10:13;;;;;;;11.82;1.85;;;;;;;18.56;75.71;101913.44;5050681;28;20457;-83
2022/07/03 07:12:39;;;;;;;6.43;1.60;;;;;;;18.48;75.52;101904.31;5033873;28;20036;-83
2022/07/03 07:15:05;;;;;;;7.70;1.95;;;;;;;18.63;76.73;101914.44;5052387;28;20056;-85
2022/07/03 07:17:30;;;;;;;4.93;1.38;;;;;;;18.94;75.34;101921.91;5052507;28;20417;-84
2022/07/03 07:19:56;;;;;;;4.38;1.63;;;;;;;19.15;72.71;101924.97;5052532;28;20036;-83
2022/07/03 07:22:22;;;;;;;5.00;1.58;;;;;;;19.39;74.10;101923.22;5050829;28;20436;-83
2022/07/03 07:24:47;;;;;;;5.93;1.50;;;;;;;19.56;71.48;101922.19;5052083;28;20021;-83
2022/07/03 07:27:13;;;;;;;2.90;1.45;;;;;;;19.81;68.67;101924.00;5050961;28;20051;-82
2022/07/03 07:29:38;;;;;;;5.32;2.03;;;;;;;20.14;66.96;101919.31;5050634;28;20156;-83
2022/07/03 07:32:04;;;;;;;4.43;1.33;;;;;;;20.38;68.87;101928.31;5050236;28;20108;-83
2022/07/03 07:34:30;;;;;;;3.85;1.50;;;;;;;20.49;67.36;101925.19;5050108;28;20083;-84
2022/07/03 07:36:55;;;;;;;4.03;1.23;;;;;;;20.46;66.50;101933.66;5050536;28;20110;-81
2022/07/03 07:39:21;;;;;;;4.63;1.50;;;;;;;20.31;66.50;101927.34;5051889;28;20057;-88
2022/07/03 07:41:46;;;;;;;3.20;1.15;;;;;;;20.28;67.06;101935.81;5049859;28;20103;-81
2022/07/03 07:44:11;;;;;;;2.70;1.40;;;;;;;20.14;66.20;101942.78;5050514;28;20048;-76
2022/07/03 07:46:37;;;;;;;3.97;1.38;;;;;;;19.98;67.58;101941.00;5051690;28;20037;-77
2022/07/03 07:49:02;;;;;;;5.88;1.30;;;;;;;20.00;68.13;101947.88;5051097;28;20368;-77
2022/07/03 07:51:27;;;;;;;5.97;1.30;;;;;;;19.99;68.93;101950.75;5051430;28;20033;-77
2022/07/03 07:53:56;;;;;;;5.55;1.35;;;;;;;20.06;66.91;101939.13;5051415;28;20037;-75
2022/07/03 07:56:22;;;;;;;5.22;1.55;;;;;;;19.90;66.18;101945.41;5050887;28;20041;-73
2022/07/03 07:58:48;;;;;;;4.90;1.42;;;;;;;19.79;69.10;101950.34;5051275;28;20044;-74
2022/07/03 08:06:41;;;;;;;5.03;1.55;;;;;;;20.76;64.34;101934.66;5050818;28;20059;-74
2022/07/03 08:09:06;;;;;;;5.85;1.85;;;;;;;20.64;64.60;101941.50;5032583;28;20033;-74
2022/07/03 08:11:31;;;;;;;5.18;1.38;;;;;;;20.39;65.29;101935.38;5050585;28;20033;-75
2022/07/03 08:13:57;;;;;;;3.35;1.13;;;;;;;20.10;68.09;101939.59;5050488;28;20430;-76
2022/07/03 08:16:22;;;;;;;2.22;1.10;;;;;;;19.85;69.21;101945.06;5050357;28;20087;-74
2022/07/03 08:18:48;;;;;;;2.35;1.20;;;;;;;19.65;70.47;101949.16;5049596;28;20077;-76
2022/07/03 08:21:13;;;;;;;1.67;1.08;;;;;;;19.73;71.00;101955.41;5050430;28;20033;-73
2022/07/03 08:23:38;;;;;;;4.22;1.25;;;;;;;20.10;69.16;101938.75;5050822;28;20477;-75
2022/07/03 08:26:04;;;;;;;4.97;1.42;;;;;;;20.75;69.17;101949.22;5050554;28;20037;-75
2022/07/03 08:28:30;;;;;;;3.17;1.60;;;;;;;21.52;63.90;101941.16;5050468;28;20029;-75
2022/07/03 08:30:55;;;;;;;3.70;1.30;;;;;;;21.70;62.90;101946.22;5049346;28;20133;-74
2022/07/03 08:33:20;;;;;;;2.58;1.10;;;;;;;21.41;62.60;101945.16;5050567;28;20029;-74
2022/07/03 08:35:46;;;;;;;4.45;1.05;;;;;;;21.19;63.51;101945.00;5048830;28;20107;-75
2022/07/03 08:38:11;;;;;;;5.93;1.50;;;;;;;20.86;64.04;101952.53;5050813;28;20037;-75
2022/07/03 08:40:37;;;;;;;4.18;1.20;;;;;;;20.58;65.60;101948.44;5049945;28;20342;-74
2022/07/03 08:43:04;;;;;;;5.78;1.35;;;;;;;20.42;66.47;101946.69;5050452;28;20079;-75
2022/07/03 08:45:37;;;;;;;2.70;1.58;;;;;;;20.28;66.02;101949.31;5049130;28;20391;-76
2022/07/03 08:48:04;;;;;;;4.32;1.17;;;;;;;19.95;66.96;101950.28;5049967;28;20444;-75
2022/07/03 08:50:33;;;;;;;2.05;1.10;;;;;;;19.77;67.95;101952.34;5050057;28;20131;-76
2022/07/03 08:52:59;;;;;;;2.42;1.02;;;;;;;19.80;68.05;101949.34;5048849;28;20142;-77
2022/07/03 08:55:25;;;;;;;3.25;1.10;;;;;;;20.45;66.85;101945.47;5048324;28;20098;-77
2022/07/03 08:57:52;;;;;;;2.58;1.20;;;;;;;20.91;63.31;101942.00;5048697;28;20029;-79
2022/07/03 09:00:18;;;;;;;4.47;1.10;;;;;;;20.85;64.67;101943.56;5050193;28;20029;-76
2022/07/03 09:02:46;;;;;;;2.83;1.48;;;;;;;20.58;65.45;101950.31;5050040;28;20040;-77
2022/07/03 09:05:13;;;;;;;2.78;1.15;;;;;;;20.16;65.78;101946.16;5049818;28;20033;-79
2022/07/03 09:07:41;;;;;;;2.78;1.20;;;;;;;19.76;67.16;101948.78;5049891;28;20091;-77
2022/07/03 09:10:09;;;;;;;1.98;0.90;;;;;;;19.46;68.63;101953.91;5049690;28;20433;-77
2022/07/03 09:12:35;;;;;;;2.13;1.30;;;;;;;19.28;68.56;101951.41;5049903;28;20029;-78
2022/07/03 09:15:04;;;;;;;3.05;1.10;;;;;;;19.27;69.03;101960.53;5049888;28;20040;-78
2022/07/03 09:17:30;;;;;;;3.13;1.20;;;;;;;19.46;70.37;101956.59;5048314;28;20069;-78
2022/07/03 09:19:58;;;;;;;5.10;1.13;;;;;;;19.79;69.15;101964.66;5049487;28;20056;-76
2022/07/03 09:22:26;;;;;;;2.58;1.00;;;;;;;19.98;66.73;101962.59;5050160;28;20028;-74
2022/07/03 09:24:54;;;;;;;2.92;1.02;;;;;;;20.19;67.17;101962.00;5049860;28;20029;-75
2022/07/03 09:27:22;;;;;;;4.82;1.20;;;;;;;20.22;64.25;101972.47;5050178;28;20093;-74
2022/07/03 09:30:01;;;;;;;1.30;1.10;;;;;;;20.34;65.18;101962.94;5051235;28;20040;-78
2022/07/03 09:32:39;;;;;;;1.45;0.88;;;;;;;20.59;64.97;101962.81;5054034;28;20195;-75
2022/07/03 09:35:14;;;;;;;2.55;1.10;;;;;;;21.07;63.44;101962.69;5053733;28;20036;-77
2022/07/03 09:37:47;;;;;;;2.20;1.00;;;;;;;21.97;60.03;101967.22;5053467;28;20032;-75
2022/07/03 09:40:12;;;;;;;1.67;1.00;;;;;;;22.72;56.32;101961.69;5052026;28;20025;-76
2022/07/03 09:42:37;;;;;;;1.25;1.00;;;;;;;23.37;55.39;101967.13;5051802;28;20045;-74
2022/07/03 09:45:03;;;;;;;1.70;1.00;;;;;;;23.27;53.43;101977.47;5052392;28;20132;-76
2022/07/03 09:47:29;;;;;;;3.58;0.90;;;;;;;22.97;55.73;101964.84;5053944;28;20083;-77
2022/07/03 09:49:56;;;;;;;1.67;1.00;;;;;;;22.96;54.36;101965.03;5053454;28;20040;-76
2022/07/03 09:52:39;;;;;;;1.45;0.82;;;;;;;23.35;53.70;101966.50;5053590;28;20091;-76
2022/07/03 09:55:12;;;;;;;2.10;1.08;;;;;;;22.73;55.03;101968.78;5053478;28;20047;-76
2022/07/03 09:57:40;;;;;;;2.33;1.13;;;;;;;22.10;57.89;101965.75;5053362;28;20079;-77
2022/07/03 10:00:17;;;;;;;1.67;1.10;;;;;;;21.26;58.44;101973.00;5053134;28;20031;-76
2022/07/03 10:02:58;;;;;;;2.05;1.00;;;;;;;20.41;61.49;101963.94;5053108;28;20028;-77
2022/07/03 10:05:29;;;;;;;3.38;1.20;;;;;;;20.15;63.06;101975.00;5053715;28;20109;-77
2022/07/03 10:08:12;;;;;;;1.17;0.82;;;;;;;20.03;62.41;101968.31;5053727;28;20166;-77
2022/07/03 10:10:43;;;;;;;1.67;1.00;;;;;;;20.55;62.85;101962.31;5051811;28;20080;-76
2022/07/03 10:13:09;;;;;;;1.65;0.77;;;;;;;21.11;58.73;101967.56;5053292;28;20109;-82
2022/07/03 10:15:37;;;;;;;1.98;0.90;;;;;;;21.21;58.82;101966.44;5053237;28;20106;-81
2022/07/03 10:18:05;;;;;;;0.80;0.80;;;;;;;21.13;58.84;101968.19;5052540;28;20125;-82
2022/07/03 10:20:34;;;;;;;1.40;0.80;;;;;;;21.14;58.99;101974.47;5051391;28;20037;-78
2022/07/03 10:23:00;;;;;;;3.17;0.80;;;;;;;21.27;58.91;101985.53;5052409;28;20033;-79
2022/07/03 10:25:25;;;;;;;1.95;0.90;;;;;;;21.68;55.06;101976.19;5053106;28;20134;-82
2022/07/03 10:27:51;;;;;;;2.22;0.85;;;;;;;21.85;54.93;101987.69;5052810;28;20434;-81
2022/07/03 10:30:21;;;;;;;1.55;0.90;;;;;;;21.73;56.43;101983.75;5052530;28;20040;-78
2022/07/03 10:32:49;;;;;;;5.25;1.30;;;;;;;21.49;54.88;101986.50;5052823;28;20021;-79
2022/07/03 10:35:20;;;;;;;1.25;0.90;;;;;;;21.09;56.87;101987.69;5052845;28;20087;-80
2022/07/03 10:38:00;;;;;;;1.92;0.80;;;;;;;20.75;58.30;101994.34;5052709;28;20449;-78
2022/07/03 10:46:24;;;;;;;3.00;1.20;;;;;;;20.31;60.14;102005.72;5050929;28;20515;-77
2022/07/03 10:48:52;;;;;;;2.72;0.90;;;;;;;21.56;59.16;101993.94;5052241;28;20103;-79
2022/07/03 10:51:18;;;;;;;5.32;0.98;;;;;;;23.92;52.39;101995.31;5057029;28;20033;-79
2022/07/03 10:53:43;;;;;;;1.45;0.80;;;;;;;25.40;48.02;101990.34;5057286;28;20120;-78
2022/07/03 10:56:09;;;;;;;2.75;1.08;;;;;;;26.80;43.68;101994.50;5051844;28;20441;-76
2022/07/03 10:58:59;;;;;;;1.15;0.82;;;;;;;26.52;41.85;101992.97;5051424;28;20346;-80
2022/07/03 11:01:29;;;;;;;1.48;0.82;;;;;;;24.87;45.50;101993.81;5051969;28;20025;-75
2022/07/03 11:04:01;;;;;;;1.77;0.95;;;;;;;23.64;47.19;101997.19;5051583;28;20409;-79
2022/07/03 11:06:44;;;;;;;4.82;1.00;;;;;;;22.52;50.94;102002.97;5051682;28;20029;-80
2022/07/03 11:09:14;;;;;;;2.58;1.00;;;;;;;22.40;51.93;101990.94;5051547;28;20112;-79
2022/07/03 11:11:57;;;;;;;8.50;1.23;;;;;;;22.38;53.72;101998.44;5051226;28;20048;-79
2022/07/03 11:14:29;;;;;;;2.13;0.90;;;;;;;22.44;51.11;101988.72;5050150;28;20040;-80
2022/07/03 11:17:20;;;;;;;3.78;1.20;;;;;;;22.01;52.62;101986.66;5051108;28;20326;-78
2022/07/03 11:23:09;;;;;;;1.33;0.88;;;;;;;24.79;47.72;101986.69;5051300;28;20143;-75
2022/07/03 11:25:47;;;;;;;2.83;1.10;;;;;;;24.64;47.15;101973.25;5049714;28;20029;-75
2022/07/03 11:28:31;;;;;;;4.60;1.20;;;;;;;23.57;48.60;101978.13;5051143;28;20112;-74
2022/07/03 11:31:23;;;;;;;1.42;0.95;;;;;;;22.59;52.06;101991.41;5050756;28;20025;-75
2022/07/03 11:33:51;;;;;;;1.85;1.15;;;;;;;21.70;52.34;101984.13;5049115;28;20044;-77
2022/07/03 11:36:16;;;;;;;4.95;1.20;;;;;;;21.05;55.61;101989.94;5051300;28;20025;-82
2022/07/03 11:39:05;;;;;;;1.10;0.98;;;;;;;20.44;58.15;101992.47;5049760;28;20067;-78
2022/07/03 11:41:44;;;;;;;4.13;1.13;;;;;;;19.77;60.62;102004.47;5051210;28;20082;-77
2022/07/03 11:44:13;;;;;;;3.20;1.10;;;;;;;19.50;62.08;102003.00;5050957;28;20426;-78
2022/07/03 11:46:39;;;;;;;3.47;1.20;;;;;;;19.65;64.53;102009.41;5050892;28;20039;-80